Alameda, California
Current Conditions -  °F | °C
As of 11:53 AM on Friday 24 Oct 2014 (Local Time) from KOAK Reporting Station
Few Clouds Few Clouds  
Wind Chill: 66°   Ceiling: Unl
Heat Index: 66°   Visibility: 10mi
Dew Point: 55°   Wind: 7mph
Humidity: 68%   Direction: 260°W
Pressure: 29.96"   Gusts: NA
Location:  37.77°N, 122.24°W
Report Text: KOAK 241853Z 26006KT 10SM FEW012 19/13 A2996 RMK AO2 SLP144 T01890128
Loading
Personal Weather Stations






























Interactive Weather Map
Tropical Storm Tracking
New forecast layout! Learn more

10-Day Weather Forecast

Advertisements
Track Severe Weather on mobile